sensor_id;sensor_type;location;lat;lon;timestamp;temperature;humidity
44069;DHT22;29738;51.234;5.484;2023-04-02T00:01:35;7.30;99.90
44069;DHT22;29738;51.234;5.484;2023-04-02T00:04:04;7.30;99.90
44069;DHT22;29738;51.234;5.484;2023-04-02T00:06:35;7.30;99.90
44069;DHT22;29738;51.234;5.484;2023-04-02T00:11:47;7.20;99.90
44069;DHT22;29738;51.234;5.484;2023-04-02T00:14:32;7.20;99.90
44069;DHT22;29738;51.234;5.484;2023-04-02T00:17:03;7.20;99.90
44069;DHT22;29738;51.234;5.484;2023-04-02T00:19:35;7.20;99.90
44069;DHT22;29738;51.234;5.484;2023-04-02T00:22:05;7.20;99.90
44069;DHT22;29738;51.234;5.484;2023-04-02T00:24:32;7.10;99.90
44069;DHT22;29738;51.234;5.484;2023-04-02T00:26:58;7.10;99.90
44069;DHT22;29738;51.234;5.484;2023-04-02T00:29:26;7.20;99.90
44069;DHT22;29738;51.234;5.484;2023-04-02T00:31:53;7.20;99.90
44069;DHT22;29738;51.234;5.484;2023-04-02T00:34:30;7.10;99.90
44069;DHT22;29738;51.234;5.484;2023-04-02T00:36:57;7.10;99.90
44069;DHT22;29738;51.234;5.484;2023-04-02T00:39:26;7.00;99.90
44069;DHT22;29738;51.234;5.484;2023-04-02T00:41:53;7.00;99.90
44069;DHT22;29738;51.234;5.484;2023-04-02T00:44:33;7.00;99.90
44069;DHT22;29738;51.234;5.484;2023-04-02T00:47:09;7.00;99.90
44069;DHT22;29738;51.234;5.484;2023-04-02T00:49:38;7.00;99.90
44069;DHT22;29738;51.234;5.484;2023-04-02T00:52:07;7.00;99.90
44069;DHT22;29738;51.234;5.484;2023-04-02T00:57:24;7.00;99.90
44069;DHT22;29738;51.234;5.484;2023-04-02T00:59:55;7.00;99.90
44069;DHT22;29738;51.234;5.484;2023-04-02T01:02:25;7.00;99.90
44069;DHT22;29738;51.234;5.484;2023-04-02T01:05:19;7.00;99.90
44069;DHT22;29738;51.234;5.484;2023-04-02T01:08:20;7.00;99.90
44069;DHT22;29738;51.234;5.484;2023-04-02T01:19:52;6.80;99.90
44069;DHT22;29738;51.234;5.484;2023-04-02T01:22:50;6.90;99.90
44069;DHT22;29738;51.234;5.484;2023-04-02T01:25:45;6.90;99.90
44069;DHT22;29738;51.234;5.484;2023-04-02T01:28:16;6.80;99.90
44069;DHT22;29738;51.234;5.484;2023-04-02T01:30:45;6.80;99.90
44069;DHT22;29738;51.234;5.484;2023-04-02T01:33:12;6.90;99.90
44069;DHT22;29738;51.234;5.484;2023-04-02T01:35:43;6.90;99.90
44069;DHT22;29738;51.234;5.484;2023-04-02T01:38:11;6.90;99.90
44069;DHT22;29738;51.234;5.484;2023-04-02T01:40:44;6.80;99.90
44069;DHT22;29738;51.234;5.484;2023-04-02T01:46:27;6.90;99.90
44069;DHT22;29738;51.234;5.484;2023-04-02T01:48:55;6.80;99.90
44069;DHT22;29738;51.234;5.484;2023-04-02T01:51:30;6.80;99.90
44069;DHT22;29738;51.234;5.484;2023-04-02T01:54:00;6.80;99.90
44069;DHT22;29738;51.234;5.484;2023-04-02T01:56:28;6.80;99.90
44069;DHT22;29738;51.234;5.484;2023-04-02T01:58:58;6.80;99.90
44069;DHT22;29738;51.234;5.484;2023-04-02T02:01:34;6.70;99.90
44069;DHT22;29738;51.234;5.484;2023-04-02T02:04:01;6.80;99.90
44069;DHT22;29738;51.234;5.484;2023-04-02T02:06:27;6.70;99.90
44069;DHT22;29738;51.234;5.484;2023-04-02T02:09:35;6.70;99.90
44069;DHT22;29738;51.234;5.484;2023-04-02T02:12:02;6.80;99.90
44069;DHT22;29738;51.234;5.484;2023-04-02T02:14:29;6.70;99.90
44069;DHT22;29738;51.234;5.484;2023-04-02T02:16:58;6.70;99.90
44069;DHT22;29738;51.234;5.484;2023-04-02T02:19:34;6.70;99.90
44069;DHT22;29738;51.234;5.484;2023-04-02T02:22:13;6.70;99.90
44069;DHT22;29738;51.234;5.484;2023-04-02T02:24:42;6.60;99.90
44069;DHT22;29738;51.234;5.484;2023-04-02T02:27:43;6.50;99.90
44069;DHT22;29738;51.234;5.484;2023-04-02T02:30:46;6.40;99.90
44069;DHT22;29738;51.234;5.484;2023-04-02T02:33:30;6.40;99.90
44069;DHT22;29738;51.234;5.484;2023-04-02T02:41:40;6.40;99.90
44069;DHT22;29738;51.234;5.484;2023-04-02T02:46:44;6.30;99.90
44069;DHT22;29738;51.234;5.484;2023-04-02T02:49:16;6.30;99.90
44069;DHT22;29738;51.234;5.484;2023-04-02T02:51:49;6.40;99.90
44069;DHT22;29738;51.234;5.484;2023-04-02T02:54:18;6.30;99.90
44069;DHT22;29738;51.234;5.484;2023-04-02T02:56:49;6.40;99.90
44069;DHT22;29738;51.234;5.484;2023-04-02T02:59:18;6.30;99.90
44069;DHT22;29738;51.234;5.484;2023-04-02T03:01:46;6.30;99.90
44069;DHT22;29738;51.234;5.484;2023-04-02T03:04:12;6.30;99.90
44069;DHT22;29738;51.234;5.484;2023-04-02T03:06:41;6.30;99.90
44069;DHT22;29738;51.234;5.484;2023-04-02T03:12:02;6.20;99.90
44069;DHT22;29738;51.234;5.484;2023-04-02T03:20:45;6.00;99.90
44069;DHT22;29738;51.234;5.484;2023-04-02T03:23:34;6.10;99.90
44069;DHT22;29738;51.234;5.484;2023-04-02T03:26:09;6.00;99.90
44069;DHT22;29738;51.234;5.484;2023-04-02T03:28:44;6.00;99.90
44069;DHT22;29738;51.234;5.484;2023-04-02T03:31:37;6.00;99.90
44069;DHT22;29738;51.234;5.484;2023-04-02T03:34:16;6.00;99.90
44069;DHT22;29738;51.234;5.484;2023-04-02T03:36:53;5.90;99.90
44069;DHT22;29738;51.234;5.484;2023-04-02T03:39:39;6.00;99.90
44069;DHT22;29738;51.234;5.484;2023-04-02T03:42:28;5.90;99.90
44069;DHT22;29738;51.234;5.484;2023-04-02T03:45:16;5.90;99.90
44069;DHT22;29738;51.234;5.484;2023-04-02T03:47:46;5.90;99.90
44069;DHT22;29738;51.234;5.484;2023-04-02T03:50:36;5.90;99.90
44069;DHT22;29738;51.234;5.484;2023-04-02T03:53:04;5.90;99.90
44069;DHT22;29738;51.234;5.484;2023-04-02T03:55:36;5.90;99.90
44069;DHT22;29738;51.234;5.484;2023-04-02T03:58:30;5.90;99.90
44069;DHT22;29738;51.234;5.484;2023-04-02T04:01:13;5.90;99.90
44069;DHT22;29738;51.234;5.484;2023-04-02T04:03:47;5.90;99.90
44069;DHT22;29738;51.234;5.484;2023-04-02T04:06:28;5.80;99.90
44069;DHT22;29738;51.234;5.484;2023-04-02T04:08:59;5.80;99.90
44069;DHT22;29738;51.234;5.484;2023-04-02T04:11:34;5.80;99.90
44069;DHT22;29738;51.234;5.484;2023-04-02T04:14:07;5.70;99.90
44069;DHT22;29738;51.234;5.484;2023-04-02T04:16:48;5.80;99.90
44069;DHT22;29738;51.234;5.484;2023-04-02T04:19:25;5.60;99.90
44069;DHT22;29738;51.234;5.484;2023-04-02T04:22:21;5.70;99.90
44069;DHT22;29738;51.234;5.484;2023-04-02T04:24:55;5.80;99.90
44069;DHT22;29738;51.234;5.484;2023-04-02T04:27:47;5.70;99.90
44069;DHT22;29738;51.234;5.484;2023-04-02T04:30:33;5.80;99.90
44069;DHT22;29738;51.234;5.484;2023-04-02T04:33:18;5.70;99.90
44069;DHT22;29738;51.234;5.484;2023-04-02T04:35:57;5.70;99.90
44069;DHT22;29738;51.234;5.484;2023-04-02T04:38:33;5.70;99.90
44069;DHT22;29738;51.234;5.484;2023-04-02T04:41:17;5.70;99.90
44069;DHT22;29738;51.234;5.484;2023-04-02T04:43:53;5.80;99.90
44069;DHT22;29738;51.234;5.484;2023-04-02T04:49:37;5.70;99.90
44069;DHT22;29738;51.234;5.484;2023-04-02T04:52:19;5.70;99.90
44069;DHT22;29738;51.234;5.484;2023-04-02T04:54:46;5.50;99.90
44069;DHT22;29738;51.234;5.484;2023-04-02T04:57:31;5.60;99.90
44069;DHT22;29738;51.234;5.484;2023-04-02T05:00:12;5.60;99.90
44069;DHT22;29738;51.234;5.484;2023-04-02T05:02:53;5.50;99.90
44069;DHT22;29738;51.234;5.484;2023-04-02T05:05:28;5.60;99.90
44069;DHT22;29738;51.234;5.484;2023-04-02T05:08:09;5.50;99.90
44069;DHT22;29738;51.234;5.484;2023-04-02T05:10:45;5.50;99.90
44069;DHT22;29738;51.234;5.484;2023-04-02T05:13:29;5.50;99.90
44069;DHT22;29738;51.234;5.484;2023-04-02T05:16:17;5.50;99.90
44069;DHT22;29738;51.234;5.484;2023-04-02T05:19:01;5.50;99.90
44069;DHT22;29738;51.234;5.484;2023-04-02T05:21:47;5.50;99.90
44069;DHT22;29738;51.234;5.484;2023-04-02T05:26:55;5.50;99.90
44069;DHT22;29738;51.234;5.484;2023-04-02T05:29:30;5.50;99.90
44069;DHT22;29738;51.234;5.484;2023-04-02T05:32:07;5.30;99.90
44069;DHT22;29738;51.234;5.484;2023-04-02T05:34:37;5.30;99.90
44069;DHT22;29738;51.234;5.484;2023-04-02T05:37:06;5.20;99.90
44069;DHT22;29738;51.234;5.484;2023-04-02T05:39:33;5.30;99.90
44069;DHT22;29738;51.234;5.484;2023-04-02T05:42:04;5.20;99.90
44069;DHT22;29738;51.234;5.484;2023-04-02T05:44:37;5.20;99.90
44069;DHT22;29738;51.234;5.484;2023-04-02T05:47:17;5.20;99.90
44069;DHT22;29738;51.234;5.484;2023-04-02T05:50:36;5.30;99.90
44069;DHT22;29738;51.234;5.484;2023-04-02T05:52:46;5.30;99.90
44069;DHT22;29738;51.234;5.484;2023-04-02T05:57:51;5.20;99.90
44069;DHT22;29738;51.234;5.484;2023-04-02T06:00:44;5.20;99.90
44069;DHT22;29738;51.234;5.484;2023-04-02T06:03:28;5.20;99.90
44069;DHT22;29738;51.234;5.484;2023-04-02T06:06:04;5.10;99.90
44069;DHT22;29738;51.234;5.484;2023-04-02T06:08:55;5.10;99.90
44069;DHT22;29738;51.234;5.484;2023-04-02T06:11:29;5.00;99.90
44069;DHT22;29738;51.234;5.484;2023-04-02T06:13:59;4.90;99.90
44069;DHT22;29738;51.234;5.484;2023-04-02T06:16:28;4.90;99.90
44069;DHT22;29738;51.234;5.484;2023-04-02T06:18:55;5.00;99.90
44069;DHT22;29738;51.234;5.484;2023-04-02T06:21:22;4.90;99.90
44069;DHT22;29738;51.234;5.484;2023-04-02T06:23:54;4.90;99.90
44069;DHT22;29738;51.234;5.484;2023-04-02T06:26:31;4.90;99.90
44069;DHT22;29738;51.234;5.484;2023-04-02T06:31:57;4.90;99.90
44069;DHT22;29738;51.234;5.484;2023-04-02T06:34:25;4.90;99.90
44069;DHT22;29738;51.234;5.484;2023-04-02T06:37:11;5.00;99.90
44069;DHT22;29738;51.234;5.484;2023-04-02T06:39:38;5.00;99.90
44069;DHT22;29738;51.234;5.484;2023-04-02T06:42:13;5.00;99.90
44069;DHT22;29738;51.234;5.484;2023-04-02T06:44:41;5.00;99.90
44069;DHT22;29738;51.234;5.484;2023-04-02T06:47:22;4.90;99.90
44069;DHT22;29738;51.234;5.484;2023-04-02T06:52:55;5.00;99.90
44069;DHT22;29738;51.234;5.484;2023-04-02T06:55:31;5.00;99.90
44069;DHT22;29738;51.234;5.484;2023-04-02T06:57:58;4.90;99.90
44069;DHT22;29738;51.234;5.484;2023-04-02T07:00:33;4.80;99.90
44069;DHT22;29738;51.234;5.484;2023-04-02T07:03:02;4.70;99.90
44069;DHT22;29738;51.234;5.484;2023-04-02T07:05:30;4.80;99.90
44069;DHT22;29738;51.234;5.484;2023-04-02T07:07:56;4.80;99.90
44069;DHT22;29738;51.234;5.484;2023-04-02T07:10:22;4.80;99.90
44069;DHT22;29738;51.234;5.484;2023-04-02T07:12:48;4.80;99.90
44069;DHT22;29738;51.234;5.484;2023-04-02T07:15:16;4.80;99.90
44069;DHT22;29738;51.234;5.484;2023-04-02T07:17:44;4.70;99.90
44069;DHT22;29738;51.234;5.484;2023-04-02T07:20:24;4.80;99.90
44069;DHT22;29738;51.234;5.484;2023-04-02T07:22:51;4.80;99.90
44069;DHT22;29738;51.234;5.484;2023-04-02T07:25:17;4.80;99.90
44069;DHT22;29738;51.234;5.484;2023-04-02T07:27:43;4.80;99.90
44069;DHT22;29738;51.234;5.484;2023-04-02T07:30:10;4.90;99.90
44069;DHT22;29738;51.234;5.484;2023-04-02T07:32:36;4.80;99.90
44069;DHT22;29738;51.234;5.484;2023-04-02T07:35:03;4.80;99.90
44069;DHT22;29738;51.234;5.484;2023-04-02T07:37:30;4.90;99.90
44069;DHT22;29738;51.234;5.484;2023-04-02T07:39:56;4.90;99.90
44069;DHT22;29738;51.234;5.484;2023-04-02T07:42:22;4.80;99.90
44069;DHT22;29738;51.234;5.484;2023-04-02T07:44:48;4.80;99.90
44069;DHT22;29738;51.234;5.484;2023-04-02T07:47:14;4.70;99.90
44069;DHT22;29738;51.234;5.484;2023-04-02T07:49:40;4.70;99.90
44069;DHT22;29738;51.234;5.484;2023-04-02T07:52:06;4.80;99.90
44069;DHT22;29738;51.234;5.484;2023-04-02T07:54:32;4.80;99.90
44069;DHT22;29738;51.234;5.484;2023-04-02T07:56:58;4.80;99.90
44069;DHT22;29738;51.234;5.484;2023-04-02T07:59:24;4.80;99.90
44069;DHT22;29738;51.234;5.484;2023-04-02T08:01:51;4.80;99.90
44069;DHT22;29738;51.234;5.484;2023-04-02T08:04:21;4.70;99.90
44069;DHT22;29738;51.234;5.484;2023-04-02T08:06:48;4.70;99.90
44069;DHT22;29738;51.234;5.484;2023-04-02T08:09:15;4.80;99.90
44069;DHT22;29738;51.234;5.484;2023-04-02T08:11:42;4.80;99.90
44069;DHT22;29738;51.234;5.484;2023-04-02T08:14:08;4.80;99.90
44069;DHT22;29738;51.234;5.484;2023-04-02T08:16:49;4.80;99.90
44069;DHT22;29738;51.234;5.484;2023-04-02T08:19:16;4.70;99.90
44069;DHT22;29738;51.234;5.484;2023-04-02T08:21:46;4.70;99.90
44069;DHT22;29738;51.234;5.484;2023-04-02T08:24:15;4.80;99.90
44069;DHT22;29738;51.234;5.484;2023-04-02T08:26:44;4.80;99.90
44069;DHT22;29738;51.234;5.484;2023-04-02T08:29:11;4.80;99.90
44069;DHT22;29738;51.234;5.484;2023-04-02T08:31:37;4.80;99.90
44069;DHT22;29738;51.234;5.484;2023-04-02T08:34:03;4.70;99.90
44069;DHT22;29738;51.234;5.484;2023-04-02T08:36:33;4.80;99.90
44069;DHT22;29738;51.234;5.484;2023-04-02T08:38:59;4.90;99.90
44069;DHT22;29738;51.234;5.484;2023-04-02T08:41:27;4.90;99.90
44069;DHT22;29738;51.234;5.484;2023-04-02T08:46:50;4.70;99.90
44069;DHT22;29738;51.234;5.484;2023-04-02T08:49:21;4.70;99.90
44069;DHT22;29738;51.234;5.484;2023-04-02T08:51:51;4.80;99.90
44069;DHT22;29738;51.234;5.484;2023-04-02T08:54:27;4.70;99.90
44069;DHT22;29738;51.234;5.484;2023-04-02T08:59:44;4.80;99.90
44069;DHT22;29738;51.234;5.484;2023-04-02T09:02:41;4.80;99.90
44069;DHT22;29738;51.234;5.484;2023-04-02T09:05:32;4.80;99.90
44069;DHT22;29738;51.234;5.484;2023-04-02T09:08:01;4.80;99.90
44069;DHT22;29738;51.234;5.484;2023-04-02T09:10:46;4.80;99.90
44069;DHT22;29738;51.234;5.484;2023-04-02T09:13:25;4.90;99.90
44069;DHT22;29738;51.234;5.484;2023-04-02T09:16:15;5.00;99.90
44069;DHT22;29738;51.234;5.484;2023-04-02T09:18:46;5.00;99.90
44069;DHT22;29738;51.234;5.484;2023-04-02T09:21:37;4.80;99.90
44069;DHT22;29738;51.234;5.484;2023-04-02T09:24:04;4.90;99.90
44069;DHT22;29738;51.234;5.484;2023-04-02T09:26:32;4.80;99.90
44069;DHT22;29738;51.234;5.484;2023-04-02T09:32:17;4.70;99.90
44069;DHT22;29738;51.234;5.484;2023-04-02T09:34:45;4.70;99.90
44069;DHT22;29738;51.234;5.484;2023-04-02T09:37:20;4.70;99.90
44069;DHT22;29738;51.234;5.484;2023-04-02T09:39:50;4.70;99.90
44069;DHT22;29738;51.234;5.484;2023-04-02T09:42:45;4.70;99.90
44069;DHT22;29738;51.234;5.484;2023-04-02T09:45:14;4.70;99.90
44069;DHT22;29738;51.234;5.484;2023-04-02T09:47:44;4.70;99.90
44069;DHT22;29738;51.234;5.484;2023-04-02T09:52:51;4.80;99.90
44069;DHT22;29738;51.234;5.484;2023-04-02T09:57:46;4.80;99.90
44069;DHT22;29738;51.234;5.484;2023-04-02T10:02:59;5.00;99.90
44069;DHT22;29738;51.234;5.484;2023-04-02T10:05:27;5.00;99.90
44069;DHT22;29738;51.234;5.484;2023-04-02T10:08:11;5.00;99.90
44069;DHT22;29738;51.234;5.484;2023-04-02T10:10:50;5.00;99.90
44069;DHT22;29738;51.234;5.484;2023-04-02T10:13:45;4.90;99.90
44069;DHT22;29738;51.234;5.484;2023-04-02T10:16:26;5.00;99.90
44069;DHT22;29738;51.234;5.484;2023-04-02T10:19:09;5.10;99.90
44069;DHT22;29738;51.234;5.484;2023-04-02T10:21:39;5.10;99.90
44069;DHT22;29738;51.234;5.484;2023-04-02T10:24:14;5.00;99.90
44069;DHT22;29738;51.234;5.484;2023-04-02T10:32:15;5.20;99.90
44069;DHT22;29738;51.234;5.484;2023-04-02T10:34:57;5.30;99.90
44069;DHT22;29738;51.234;5.484;2023-04-02T10:38:01;5.20;99.90
44069;DHT22;29738;51.234;5.484;2023-04-02T10:46:42;5.40;99.90
44069;DHT22;29738;51.234;5.484;2023-04-02T10:52:01;5.40;99.90
44069;DHT22;29738;51.234;5.484;2023-04-02T10:54:55;5.50;99.90
44069;DHT22;29738;51.234;5.484;2023-04-02T10:57:36;5.50;99.90
44069;DHT22;29738;51.234;5.484;2023-04-02T11:03:14;5.40;99.90
44069;DHT22;29738;51.234;5.484;2023-04-02T11:08:29;5.40;99.90
44069;DHT22;29738;51.234;5.484;2023-04-02T11:11:17;5.40;99.90
44069;DHT22;29738;51.234;5.484;2023-04-02T11:14:14;5.50;99.90
44069;DHT22;29738;51.234;5.484;2023-04-02T11:16:42;5.50;99.90
44069;DHT22;29738;51.234;5.484;2023-04-02T11:21:46;5.40;99.90
44069;DHT22;29738;51.234;5.484;2023-04-02T11:29:49;5.40;99.90
44069;DHT22;29738;51.234;5.484;2023-04-02T11:50:43;5.80;99.90
44069;DHT22;29738;51.234;5.484;2023-04-02T11:55:46;5.50;99.90
44069;DHT22;29738;51.234;5.484;2023-04-02T12:01:32;5.50;99.90
44069;DHT22;29738;51.234;5.484;2023-04-02T12:04:26;5.60;99.90
44069;DHT22;29738;51.234;5.484;2023-04-02T12:09:48;5.70;99.90
44069;DHT22;29738;51.234;5.484;2023-04-02T12:12:37;5.80;99.90
44069;DHT22;29738;51.234;5.484;2023-04-02T12:15:42;5.80;99.90
44069;DHT22;29738;51.234;5.484;2023-04-02T12:18:18;5.80;99.90
44069;DHT22;29738;51.234;5.484;2023-04-02T12:20:50;6.00;99.90
44069;DHT22;29738;51.234;5.484;2023-04-02T12:23:19;5.80;99.90
44069;DHT22;29738;51.234;5.484;2023-04-02T12:26:00;5.70;99.90
44069;DHT22;29738;51.234;5.484;2023-04-02T12:28:27;6.10;99.90
44069;DHT22;29738;51.234;5.484;2023-04-02T12:31:03;6.10;99.90
44069;DHT22;29738;51.234;5.484;2023-04-02T12:33:33;5.90;99.90
44069;DHT22;29738;51.234;5.484;2023-04-02T12:36:04;5.80;99.90
44069;DHT22;29738;51.234;5.484;2023-04-02T12:38:54;5.80;99.90
44069;DHT22;29738;51.234;5.484;2023-04-02T12:44:02;6.10;99.90
44069;DHT22;29738;51.234;5.484;2023-04-02T12:46:30;6.00;99.90
44069;DHT22;29738;51.234;5.484;2023-04-02T12:51:28;6.00;99.90
44069;DHT22;29738;51.234;5.484;2023-04-02T12:53:54;5.90;99.90
44069;DHT22;29738;51.234;5.484;2023-04-02T12:56:21;6.10;99.90
44069;DHT22;29738;51.234;5.484;2023-04-02T13:01:57;6.00;99.90
44069;DHT22;29738;51.234;5.484;2023-04-02T13:04:25;6.10;99.90
44069;DHT22;29738;51.234;5.484;2023-04-02T13:06:52;6.10;99.90
44069;DHT22;29738;51.234;5.484;2023-04-02T13:09:33;6.20;99.90
44069;DHT22;29738;51.234;5.484;2023-04-02T13:12:01;6.30;99.90
44069;DHT22;29738;51.234;5.484;2023-04-02T13:14:27;6.10;99.90
44069;DHT22;29738;51.234;5.484;2023-04-02T13:16:54;6.20;99.90
44069;DHT22;29738;51.234;5.484;2023-04-02T13:19:27;6.10;99.90
44069;DHT22;29738;51.234;5.484;2023-04-02T13:21:55;6.00;99.90
44069;DHT22;29738;51.234;5.484;2023-04-02T13:24:23;6.10;99.90
44069;DHT22;29738;51.234;5.484;2023-04-02T13:26:52;6.00;99.90
44069;DHT22;29738;51.234;5.484;2023-04-02T13:29:28;5.80;99.90
44069;DHT22;29738;51.234;5.484;2023-04-02T13:31:58;6.00;99.90
44069;DHT22;29738;51.234;5.484;2023-04-02T13:34:27;6.10;99.90
44069;DHT22;29738;51.234;5.484;2023-04-02T13:36:53;6.20;99.90
44069;DHT22;29738;51.234;5.484;2023-04-02T13:39:19;6.10;99.90
44069;DHT22;29738;51.234;5.484;2023-04-02T13:41:59;6.20;99.90
44069;DHT22;29738;51.234;5.484;2023-04-02T13:44:31;6.20;99.90
44069;DHT22;29738;51.234;5.484;2023-04-02T13:46:57;6.10;99.90
44069;DHT22;29738;51.234;5.484;2023-04-02T13:49:24;6.00;99.90
44069;DHT22;29738;51.234;5.484;2023-04-02T13:51:55;6.00;99.90
44069;DHT22;29738;51.234;5.484;2023-04-02T13:54:29;6.10;99.90
44069;DHT22;29738;51.234;5.484;2023-04-02T13:56:58;6.10;99.90
44069;DHT22;29738;51.234;5.484;2023-04-02T13:59:24;6.10;99.90
44069;DHT22;29738;51.234;5.484;2023-04-02T14:01:56;6.10;99.90
44069;DHT22;29738;51.234;5.484;2023-04-02T14:04:26;6.30;99.90
44069;DHT22;29738;51.234;5.484;2023-04-02T14:15:42;6.40;99.90
44069;DHT22;29738;51.234;5.484;2023-04-02T14:18:49;6.60;99.90
44069;DHT22;29738;51.234;5.484;2023-04-02T14:24:28;6.70;99.90
44069;DHT22;29738;51.234;5.484;2023-04-02T14:29:57;6.90;99.90
44069;DHT22;29738;51.234;5.484;2023-04-02T14:32:40;7.10;99.90
44069;DHT22;29738;51.234;5.484;2023-04-02T14:35:23;7.20;99.90
44069;DHT22;29738;51.234;5.484;2023-04-02T14:38:23;7.00;99.90
44069;DHT22;29738;51.234;5.484;2023-04-02T14:43:44;7.00;99.90
44069;DHT22;29738;51.234;5.484;2023-04-02T14:46:12;7.00;99.90
44069;DHT22;29738;51.234;5.484;2023-04-02T15:02:56;7.10;99.90
44069;DHT22;29738;51.234;5.484;2023-04-02T15:06:02;6.90;99.90
44069;DHT22;29738;51.234;5.484;2023-04-02T15:08:35;7.00;99.90
44069;DHT22;29738;51.234;5.484;2023-04-02T15:13:43;7.10;99.90
44069;DHT22;29738;51.234;5.484;2023-04-02T15:16:17;7.30;99.90
44069;DHT22;29738;51.234;5.484;2023-04-02T15:18:51;7.20;99.90
44069;DHT22;29738;51.234;5.484;2023-04-02T15:29:55;7.50;99.90
44069;DHT22;29738;51.234;5.484;2023-04-02T15:35:31;7.70;99.90
44069;DHT22;29738;51.234;5.484;2023-04-02T15:43:38;7.90;99.90
44069;DHT22;29738;51.234;5.484;2023-04-02T15:46:08;8.00;99.90
44069;DHT22;29738;51.234;5.484;2023-04-02T15:51:44;7.70;99.90
44069;DHT22;29738;51.234;5.484;2023-04-02T15:54:36;7.80;99.90
44069;DHT22;29738;51.234;5.484;2023-04-02T16:08:07;8.00;99.90
44069;DHT22;29738;51.234;5.484;2023-04-02T16:10:38;8.20;99.90
44069;DHT22;29738;51.234;5.484;2023-04-02T16:13:34;8.00;99.90
44069;DHT22;29738;51.234;5.484;2023-04-02T16:16:07;8.10;99.90
44069;DHT22;29738;51.234;5.484;2023-04-02T16:18:49;8.00;99.90
44069;DHT22;29738;51.234;5.484;2023-04-02T16:21:23;8.10;99.90
44069;DHT22;29738;51.234;5.484;2023-04-02T16:23:50;8.30;99.90
44069;DHT22;29738;51.234;5.484;2023-04-02T16:26:22;8.50;99.90
44069;DHT22;29738;51.234;5.484;2023-04-02T16:34:29;8.30;99.90
44069;DHT22;29738;51.234;5.484;2023-04-02T16:37:25;8.30;99.90
44069;DHT22;29738;51.234;5.484;2023-04-02T16:40:22;8.40;99.90
44069;DHT22;29738;51.234;5.484;2023-04-02T16:48:43;8.40;99.90
44069;DHT22;29738;51.234;5.484;2023-04-02T17:00:19;8.70;99.90
44069;DHT22;29738;51.234;5.484;2023-04-02T17:03:03;8.60;99.90
44069;DHT22;29738;51.234;5.484;2023-04-02T17:05:37;8.50;99.90
44069;DHT22;29738;51.234;5.484;2023-04-02T17:08:22;8.50;99.90
44069;DHT22;29738;51.234;5.484;2023-04-02T17:11:11;8.50;99.90
44069;DHT22;29738;51.234;5.484;2023-04-02T17:14:24;8.30;99.90
44069;DHT22;29738;51.234;5.484;2023-04-02T17:16:43;8.30;99.90
44069;DHT22;29738;51.234;5.484;2023-04-02T17:19:13;8.30;99.90
44069;DHT22;29738;51.234;5.484;2023-04-02T17:21:43;8.20;99.90
44069;DHT22;29738;51.234;5.484;2023-04-02T17:27:25;7.90;99.90
44069;DHT22;29738;51.234;5.484;2023-04-02T17:29:38;7.80;99.90
44069;DHT22;29738;51.234;5.484;2023-04-02T17:32:13;7.80;99.90
44069;DHT22;29738;51.234;5.484;2023-04-02T17:34:41;7.80;99.90
44069;DHT22;29738;51.234;5.484;2023-04-02T17:37:36;7.70;99.90
44069;DHT22;29738;51.234;5.484;2023-04-02T17:40:24;7.60;99.90
44069;DHT22;29738;51.234;5.484;2023-04-02T17:42:55;7.60;99.90
44069;DHT22;29738;51.234;5.484;2023-04-02T17:45:42;7.50;99.90
44069;DHT22;29738;51.234;5.484;2023-04-02T17:51:05;7.50;99.90
44069;DHT22;29738;51.234;5.484;2023-04-02T17:59:46;7.40;99.90
44069;DHT22;29738;51.234;5.484;2023-04-02T18:02:28;7.40;99.90
44069;DHT22;29738;51.234;5.484;2023-04-02T18:05:06;7.40;99.90
44069;DHT22;29738;51.234;5.484;2023-04-02T18:10:28;7.00;99.90
44069;DHT22;29738;51.234;5.484;2023-04-02T18:13:05;7.00;99.90
44069;DHT22;29738;51.234;5.484;2023-04-02T18:15:57;6.70;99.90
44069;DHT22;29738;51.234;5.484;2023-04-02T18:18:53;6.70;99.90
44069;DHT22;29738;51.234;5.484;2023-04-02T18:24:32;6.60;99.90
44069;DHT22;29738;51.234;5.484;2023-04-02T18:27:24;6.50;99.90
44069;DHT22;29738;51.234;5.484;2023-04-02T18:35:34;6.20;99.90
44069;DHT22;29738;51.234;5.484;2023-04-02T18:43:34;6.20;99.90
44069;DHT22;29738;51.234;5.484;2023-04-02T18:46:42;6.20;99.90
44069;DHT22;29738;51.234;5.484;2023-04-02T18:49:25;6.20;99.90
44069;DHT22;29738;51.234;5.484;2023-04-02T18:51:59;6.30;99.90
44069;DHT22;29738;51.234;5.484;2023-04-02T18:54:44;6.30;99.90
44069;DHT22;29738;51.234;5.484;2023-04-02T18:57:16;6.30;99.90
44069;DHT22;29738;51.234;5.484;2023-04-02T19:02:40;6.40;99.90
44069;DHT22;29738;51.234;5.484;2023-04-02T19:07:43;6.30;99.90
44069;DHT22;29738;51.234;5.484;2023-04-02T19:10:37;6.40;99.90
44069;DHT22;29738;51.234;5.484;2023-04-02T19:13:15;6.30;99.90
44069;DHT22;29738;51.234;5.484;2023-04-02T19:21:38;6.00;99.90
44069;DHT22;29738;51.234;5.484;2023-04-02T19:27:25;5.90;99.90
44069;DHT22;29738;51.234;5.484;2023-04-02T19:41:23;5.40;99.90
44069;DHT22;29738;51.234;5.484;2023-04-02T19:43:47;5.50;99.90
44069;DHT22;29738;51.234;5.484;2023-04-02T19:46:13;5.40;99.90
44069;DHT22;29738;51.234;5.484;2023-04-02T19:48:57;5.20;99.90
44069;DHT22;29738;51.234;5.484;2023-04-02T19:51:27;5.30;99.90
44069;DHT22;29738;51.234;5.484;2023-04-02T19:53:53;5.20;99.90
44069;DHT22;29738;51.234;5.484;2023-04-02T19:56:19;5.00;99.90
44069;DHT22;29738;51.234;5.484;2023-04-02T19:58:46;5.10;99.90
44069;DHT22;29738;51.234;5.484;2023-04-02T20:01:12;5.10;99.90
44069;DHT22;29738;51.234;5.484;2023-04-02T20:03:38;4.90;99.90
44069;DHT22;29738;51.234;5.484;2023-04-02T20:06:04;5.00;99.90
44069;DHT22;29738;51.234;5.484;2023-04-02T20:08:31;4.90;99.90
44069;DHT22;29738;51.234;5.484;2023-04-02T20:10:57;4.90;99.90
44069;DHT22;29738;51.234;5.484;2023-04-02T20:13:24;4.90;99.90
44069;DHT22;29738;51.234;5.484;2023-04-02T20:15:50;4.90;99.90
44069;DHT22;29738;51.234;5.484;2023-04-02T20:18:17;4.80;99.90
44069;DHT22;29738;51.234;5.484;2023-04-02T20:20:47;4.70;99.90
44069;DHT22;29738;51.234;5.484;2023-04-02T20:23:15;4.70;99.90
44069;DHT22;29738;51.234;5.484;2023-04-02T20:25:49;4.60;99.90
44069;DHT22;29738;51.234;5.484;2023-04-02T20:28:19;4.60;99.90
44069;DHT22;29738;51.234;5.484;2023-04-02T20:30:45;4.60;99.90
44069;DHT22;29738;51.234;5.484;2023-04-02T20:33:16;4.50;99.90
44069;DHT22;29738;51.234;5.484;2023-04-02T20:35:42;4.50;99.90
44069;DHT22;29738;51.234;5.484;2023-04-02T20:38:09;4.50;99.90
44069;DHT22;29738;51.234;5.484;2023-04-02T20:40:38;4.40;99.90
44069;DHT22;29738;51.234;5.484;2023-04-02T20:43:05;4.40;99.90
44069;DHT22;29738;51.234;5.484;2023-04-02T20:45:31;4.30;99.90
44069;DHT22;29738;51.234;5.484;2023-04-02T20:47:57;4.20;99.90
44069;DHT22;29738;51.234;5.484;2023-04-02T20:50:23;4.20;99.90
44069;DHT22;29738;51.234;5.484;2023-04-02T20:52:50;4.10;99.90
44069;DHT22;29738;51.234;5.484;2023-04-02T20:55:16;4.10;99.90
44069;DHT22;29738;51.234;5.484;2023-04-02T20:57:42;4.10;99.90
44069;DHT22;29738;51.234;5.484;2023-04-02T21:00:09;4.10;99.90
44069;DHT22;29738;51.234;5.484;2023-04-02T21:02:36;4.10;99.90